createdAt,value
2022-08-01T00:02:00.398Z,96.85
2022-08-01T00:04:28.679Z,96.90
2022-08-01T00:06:56.867Z,96.79
2022-08-01T00:09:25.096Z,96.61
2022-08-01T00:11:59.766Z,96.54
2022-08-01T00:14:32.456Z,96.68
2022-08-01T00:17:07.441Z,96.71
2022-08-01T00:19:37.606Z,96.61
2022-08-01T00:22:06.068Z,96.49
2022-08-01T00:24:34.587Z,96.59
2022-08-01T00:27:04.134Z,96.52
2022-08-01T00:30:12.078Z,96.83
2022-08-01T00:32:20.544Z,96.28
2022-08-01T00:34:48.782Z,96.61
2022-08-01T00:37:17.629Z,96.72
2022-08-01T00:39:45.794Z,96.86
2022-08-01T00:42:18.537Z,97.14
2022-08-01T00:44:46.685Z,96.99
2022-08-01T00:47:18.152Z,97.19
2022-08-01T00:49:46.427Z,97.00
2022-08-01T00:52:17.679Z,96.84
2022-08-01T00:54:46.383Z,96.95
2022-08-01T00:57:16.011Z,97.39
2022-08-01T00:59:56.154Z,97.24
2022-08-01T01:02:25.036Z,97.02
2022-08-01T01:04:53.176Z,97.05
2022-08-01T01:07:31.565Z,97.23
2022-08-01T01:10:05.816Z,97.38
2022-08-01T01:12:41.809Z,96.88
2022-08-01T01:15:17.951Z,97.06
2022-08-01T01:17:52.076Z,97.09
2022-08-01T01:20:23.662Z,96.94
2022-08-01T01:23:09.599Z,97.06
2022-08-01T01:26:08.073Z,97.07
2022-08-01T01:28:48.068Z,96.97
2022-08-01T01:31:23.731Z,96.99
2022-08-01T01:33:53.084Z,96.63
2022-08-01T01:36:24.959Z,96.77
2022-08-01T01:38:55.021Z,97.13
2022-08-01T01:41:24.410Z,96.78
2022-08-01T01:43:54.095Z,96.84
2022-08-01T01:46:27.950Z,96.95
2022-08-01T01:48:58.414Z,96.96
2022-08-01T01:51:29.544Z,97.34
2022-08-01T01:53:59.915Z,97.17
2022-08-01T01:56:29.743Z,96.95
2022-08-01T01:59:03.797Z,96.95
2022-08-01T02:01:58.748Z,97.05
2022-08-01T02:04:26.646Z,96.70
2022-08-01T02:06:55.781Z,96.77
2022-08-01T02:09:25.583Z,96.90
2022-08-01T02:12:07.544Z,96.73
2022-08-01T02:14:40.958Z,96.21
2022-08-01T02:17:13.304Z,96.56
2022-08-01T02:19:41.788Z,96.75
2022-08-01T02:22:13.875Z,96.65
2022-08-01T02:24:51.638Z,96.74
2022-08-01T02:27:28.135Z,96.43
2022-08-01T02:30:03.495Z,96.13
2022-08-01T02:32:39.077Z,96.28
2022-08-01T02:35:12.094Z,96.28
2022-08-01T02:37:41.711Z,96.58
2022-08-01T02:40:15.437Z,96.37
2022-08-01T02:42:48.681Z,96.13
2022-08-01T02:45:20.074Z,95.94
2022-08-01T02:47:52.401Z,96.17
2022-08-01T02:50:21.331Z,95.94
2022-08-01T02:52:52.997Z,95.56
2022-08-01T02:55:23.689Z,95.65
2022-08-01T02:58:00.096Z,95.52
2022-08-01T03:00:30.351Z,95.63
2022-08-01T03:03:01.864Z,95.65
2022-08-01T03:05:30.605Z,95.68
2022-08-01T03:08:02.713Z,95.47
2022-08-01T03:10:33.659Z,95.27
2022-08-01T03:13:03.619Z,95.24
2022-08-01T03:15:36.770Z,95.01
2022-08-01T03:18:09.062Z,95.01
2022-08-01T03:20:37.687Z,94.63
2022-08-01T03:23:09.865Z,94.43
2022-08-01T03:25:41.880Z,94.32
2022-08-01T03:28:11.240Z,94.21
2022-08-01T03:30:41.565Z,94.06
2022-08-01T03:33:14.500Z,94.16
2022-08-01T03:35:57.393Z,93.50
2022-08-01T03:38:29.412Z,93.68
2022-08-01T03:41:01.767Z,93.46
2022-08-01T03:43:39.466Z,93.53
2022-08-01T03:46:10.908Z,93.58
2022-08-01T03:48:45.673Z,93.36
2022-08-01T03:51:16.070Z,93.22
2022-08-01T03:53:49.915Z,93.14
2022-08-01T03:56:21.545Z,92.99
2022-08-01T03:58:52.701Z,92.70
2022-08-01T04:01:21.564Z,92.28
2022-08-01T04:03:51.604Z,92.42
2022-08-01T04:06:19.879Z,92.46
2022-08-01T04:08:56.598Z,92.46
2022-08-01T04:11:29.879Z,92.28
2022-08-01T04:13:58.546Z,91.96
2022-08-01T04:16:27.485Z,91.80
2022-08-01T04:18:57.335Z,91.89
2022-08-01T04:21:29.629Z,91.66
2022-08-01T04:24:04.437Z,91.54
2022-08-01T04:26:34.588Z,91.60
2022-08-01T04:29:05.842Z,91.70
2022-08-01T04:31:35.178Z,91.30
2022-08-01T04:34:06.936Z,91.23
2022-08-01T04:36:39.183Z,90.75
2022-08-01T04:39:08.988Z,90.92
2022-08-01T04:41:38.723Z,90.52
2022-08-01T04:44:07.806Z,90.38
2022-08-01T04:46:37.838Z,89.95
2022-08-01T04:49:10.392Z,89.48
2022-08-01T04:51:38.650Z,89.25
2022-08-01T04:54:08.360Z,89.12
2022-08-01T04:56:36.574Z,88.59
2022-08-01T04:59:22.295Z,88.32
2022-08-01T05:01:53.264Z,87.88
2022-08-01T05:04:22.742Z,87.59
2022-08-01T05:06:50.900Z,87.29
2022-08-01T05:09:19.039Z,87.17
2022-08-01T05:11:47.177Z,86.74
2022-08-01T05:14:15.486Z,86.46
2022-08-01T05:16:43.687Z,86.22
2022-08-01T05:19:11.920Z,86.01
2022-08-01T05:21:41.459Z,85.61
2022-08-01T05:24:09.738Z,85.58
2022-08-01T05:26:39.641Z,85.33
2022-08-01T05:29:08.146Z,84.78
2022-08-01T05:31:36.399Z,84.65
2022-08-01T05:34:06.049Z,84.62
2022-08-01T05:36:44.691Z,84.29
2022-08-01T05:39:13.010Z,83.92
2022-08-01T05:41:41.811Z,83.71
2022-08-01T05:44:11.374Z,83.63
2022-08-01T05:46:39.767Z,83.44
2022-08-01T05:49:08.336Z,83.20
2022-08-01T05:51:38.877Z,82.58
2022-08-01T05:54:08.475Z,82.49
2022-08-01T05:56:36.632Z,82.45
2022-08-01T05:59:05.108Z,81.75
2022-08-01T06:01:33.791Z,81.59
2022-08-01T06:04:01.996Z,81.08
2022-08-01T06:06:30.259Z,81.28
2022-08-01T06:08:58.460Z,80.69
2022-08-01T06:11:28.011Z,80.10
2022-08-01T06:13:56.149Z,80.04
2022-08-01T06:16:24.517Z,79.96
2022-08-01T06:18:56.528Z,79.83
2022-08-01T06:21:25.116Z,79.16
2022-08-01T06:23:53.357Z,78.93
2022-08-01T06:26:22.056Z,78.84
2022-08-01T06:28:51.544Z,78.98
2022-08-01T06:31:19.754Z,78.45
2022-08-01T06:33:47.943Z,78.12
2022-08-01T06:36:16.088Z,77.73
2022-08-01T06:38:44.236Z,77.56
2022-08-01T06:41:14.944Z,77.34
2022-08-01T06:43:43.068Z,76.89
2022-08-01T06:46:12.627Z,76.16
2022-08-01T06:48:41.006Z,76.12
2022-08-01T06:51:14.850Z,75.70
2022-08-01T06:53:45.467Z,75.80
2022-08-01T06:56:13.847Z,75.44
2022-08-01T06:58:42.119Z,75.90
2022-08-01T07:01:10.745Z,75.15
2022-08-01T07:03:54.063Z,75.00
2022-08-01T07:06:24.698Z,75.00
2022-08-01T07:08:53.229Z,74.77
2022-08-01T07:11:21.656Z,74.41
2022-08-01T07:13:51.525Z,73.47
2022-08-01T07:16:23.083Z,73.24
2022-08-01T07:18:52.834Z,73.04
2022-08-01T07:21:40.031Z,72.55
2022-08-01T07:24:13.793Z,72.41
2022-08-01T07:26:52.244Z,71.72
2022-08-01T07:29:23.608Z,71.60
2022-08-01T07:31:51.836Z,71.67
2022-08-01T07:34:21.455Z,71.42
2022-08-01T07:36:49.679Z,70.94
2022-08-01T07:39:17.879Z,70.57
2022-08-01T07:42:05.790Z,69.79
2022-08-01T07:44:36.604Z,69.36
2022-08-01T07:47:05.630Z,68.97
2022-08-01T07:49:40.049Z,67.99
2022-08-01T07:52:09.515Z,68.25
2022-08-01T07:54:38.137Z,67.61
2022-08-01T07:57:08.164Z,67.11
2022-08-01T07:59:38.791Z,66.71
2022-08-01T08:02:10.397Z,66.44
2022-08-01T08:04:40.355Z,66.26
2022-08-01T08:07:08.909Z,65.96
2022-08-01T08:09:38.391Z,65.66
2022-08-01T08:12:08.924Z,66.34
2022-08-01T08:14:37.346Z,65.31
2022-08-01T08:17:06.143Z,64.62
2022-08-01T08:19:38.126Z,64.58
2022-08-01T08:22:09.617Z,63.71
2022-08-01T08:24:46.086Z,63.10
2022-08-01T08:27:15.299Z,62.49
2022-08-01T08:29:43.840Z,62.15
2022-08-01T08:32:13.425Z,62.15
2022-08-01T08:34:44.306Z,62.37
2022-08-01T08:37:13.962Z,62.18
2022-08-01T08:39:42.672Z,62.18
2022-08-01T08:42:14.243Z,62.24
2022-08-01T08:44:44.442Z,61.40
2022-08-01T08:47:20.096Z,60.55
2022-08-01T08:49:50.906Z,60.48
2022-08-01T08:52:24.232Z,61.28
2022-08-01T08:54:53.869Z,59.71
2022-08-01T08:57:23.034Z,59.06
2022-08-01T08:59:55.092Z,58.73
2022-08-01T09:02:24.624Z,59.32
2022-08-01T09:04:53.023Z,58.63
2022-08-01T09:07:23.903Z,58.33
2022-08-01T09:09:52.514Z,57.69
2022-08-01T09:12:21.491Z,58.12
2022-08-01T09:14:54.401Z,57.79
2022-08-01T09:17:25.469Z,56.36
2022-08-01T09:19:57.825Z,56.19
2022-08-01T09:22:35.093Z,55.45
2022-08-01T09:25:10.382Z,55.37
2022-08-01T09:27:43.871Z,54.73
2022-08-01T09:30:17.271Z,55.14
2022-08-01T09:33:11.553Z,54.82
2022-08-01T09:35:56.455Z,54.75
2022-08-01T09:38:28.436Z,54.13
2022-08-01T09:40:58.869Z,54.50
2022-08-01T09:43:29.626Z,54.47
2022-08-01T09:46:00.893Z,53.94
2022-08-01T09:48:29.971Z,51.96
2022-08-01T09:51:07.481Z,51.40
2022-08-01T09:53:52.143Z,51.24
2022-08-01T09:56:24.033Z,51.81
2022-08-01T09:59:02.330Z,51.13
2022-08-01T10:01:44.521Z,50.90
2022-08-01T10:04:15.533Z,50.17
2022-08-01T10:06:50.845Z,50.66
2022-08-01T10:09:40.353Z,50.39
2022-08-01T10:12:15.464Z,50.25
2022-08-01T10:14:46.033Z,50.26
2022-08-01T10:17:20.078Z,48.77
2022-08-01T10:19:51.368Z,48.23
2022-08-01T10:22:22.358Z,49.27
2022-08-01T10:24:57.120Z,49.61
2022-08-01T10:27:38.174Z,49.29
2022-08-01T10:30:19.957Z,49.14
2022-08-01T10:32:55.035Z,49.41
2022-08-01T10:35:46.711Z,49.06
2022-08-01T10:38:15.343Z,48.57
2022-08-01T10:40:46.316Z,47.77
2022-08-01T10:43:21.821Z,49.38
2022-08-01T10:45:55.056Z,48.18
2022-08-01T10:48:31.577Z,46.40
2022-08-01T10:51:17.706Z,46.15
2022-08-01T10:53:54.291Z,45.18
2022-08-01T10:56:26.879Z,45.62
2022-08-01T10:59:06.503Z,45.83
2022-08-01T11:01:44.679Z,45.61
2022-08-01T11:04:17.040Z,46.15
2022-08-01T11:06:56.235Z,45.48
2022-08-01T11:09:36.232Z,45.04
2022-08-01T11:12:13.650Z,46.08
2022-08-01T11:15:28.806Z,46.83
2022-08-01T11:18:01.685Z,46.16
2022-08-01T11:20:33.940Z,46.00
2022-08-01T11:23:29.422Z,46.24
2022-08-01T11:26:29.143Z,45.99
2022-08-01T11:29:21.905Z,46.01
2022-08-01T11:31:52.997Z,44.92
2022-08-01T11:34:21.816Z,44.17
2022-08-01T11:37:09.639Z,43.96
2022-08-01T11:39:38.999Z,43.58
2022-08-01T11:42:23.061Z,44.45
2022-08-01T11:44:53.264Z,43.54
2022-08-01T11:47:49.780Z,43.13
2022-08-01T11:50:35.531Z,42.59
2022-08-01T11:53:06.012Z,41.70
2022-08-01T11:55:36.001Z,41.24
2022-08-01T11:58:06.511Z,40.79
2022-08-01T12:00:37.569Z,40.47
2022-08-01T12:03:21.554Z,40.92
2022-08-01T12:06:01.803Z,40.64
2022-08-01T12:08:35.767Z,39.93
2022-08-01T12:11:06.726Z,39.60
2022-08-01T12:13:45.468Z,39.31
2022-08-01T12:16:15.431Z,38.42
2022-08-01T12:18:44.644Z,38.42
2022-08-01T12:21:16.002Z,37.88
2022-08-01T12:23:44.138Z,37.75
2022-08-01T12:26:29.399Z,37.10
2022-08-01T12:29:00.350Z,37.02
2022-08-01T12:31:38.396Z,36.30
2022-08-01T12:34:27.508Z,36.34
2022-08-01T12:36:56.827Z,36.42
2022-08-01T12:39:31.812Z,35.11
2022-08-01T12:42:00.030Z,34.73
2022-08-01T12:44:30.103Z,34.77
2022-08-01T12:47:00.385Z,35.08
2022-08-01T12:49:30.700Z,33.58
2022-08-01T12:51:59.542Z,32.99
2022-08-01T12:54:27.629Z,33.25
2022-08-01T12:56:56.372Z,32.22
2022-08-01T12:59:27.898Z,31.57
2022-08-01T13:01:59.465Z,31.05
2022-08-01T13:04:31.854Z,30.62
2022-08-01T13:07:00.003Z,30.77
2022-08-01T13:09:29.291Z,30.18
2022-08-01T13:12:04.685Z,30.76
2022-08-01T13:14:33.284Z,29.88
2022-08-01T13:17:01.438Z,29.37
2022-08-01T13:22:35.727Z,28.38
2022-08-01T13:25:20.828Z,27.96
2022-08-01T13:28:17.571Z,28.57
2022-08-01T13:31:01.385Z,27.31
2022-08-01T13:33:42.798Z,27.40
2022-08-01T13:36:11.439Z,27.35
2022-08-01T13:38:59.475Z,27.07
2022-08-01T13:41:27.744Z,28.43
2022-08-01T13:43:58.227Z,28.34
2022-08-01T13:46:29.524Z,27.57
2022-08-01T13:48:59.148Z,27.54
2022-08-01T13:51:33.725Z,27.64
2022-08-01T13:54:03.575Z,27.10
2022-08-01T13:56:31.846Z,26.82
2022-08-01T13:58:59.983Z,26.56
2022-08-01T14:01:34.240Z,25.72
2022-08-01T14:04:03.529Z,26.06
2022-08-01T14:06:31.836Z,25.45
2022-08-01T14:08:59.967Z,24.65
2022-08-01T14:11:37.245Z,25.22
2022-08-01T14:14:08.419Z,24.57
2022-08-01T14:16:38.517Z,24.29
2022-08-01T14:19:07.023Z,24.05
2022-08-01T14:21:35.758Z,22.97
2022-08-01T14:24:03.977Z,23.19
2022-08-01T14:26:36.212Z,22.61
2022-08-01T14:29:04.899Z,22.81
2022-08-01T14:31:34.516Z,22.62
2022-08-01T14:34:03.199Z,22.83
2022-08-01T14:36:38.109Z,20.94
2022-08-01T14:39:07.082Z,21.54
2022-08-01T14:41:44.302Z,21.61
2022-08-01T14:44:14.590Z,21.97
2022-08-01T14:46:57.796Z,21.73
2022-08-01T14:49:29.063Z,21.70
2022-08-01T14:51:57.229Z,22.72
2022-08-01T14:54:29.465Z,23.35
2022-08-01T14:56:59.422Z,24.48
2022-08-01T14:59:27.718Z,24.40
2022-08-01T15:01:55.913Z,24.57
2022-08-01T15:04:24.062Z,25.16
2022-08-01T15:06:52.209Z,24.15
2022-08-01T15:09:23.415Z,23.24
2022-08-01T15:11:51.608Z,22.97
2022-08-01T15:14:39.899Z,22.77
2022-08-01T15:17:08.817Z,22.29
2022-08-01T15:19:40.356Z,21.90
2022-08-01T15:22:10.682Z,22.01
2022-08-01T15:24:38.995Z,21.71
2022-08-01T15:27:07.463Z,20.85
2022-08-01T15:29:37.119Z,21.30
2022-08-01T15:32:08.215Z,20.78
2022-08-01T15:34:37.682Z,20.08
2022-08-01T15:37:07.084Z,20.27
2022-08-01T15:39:37.583Z,19.78
2022-08-01T15:42:12.121Z,20.28
2022-08-01T15:44:46.602Z,19.45
2022-08-01T15:47:14.841Z,19.16
2022-08-01T15:49:43.110Z,18.33
2022-08-01T15:52:21.454Z,17.59
2022-08-01T15:54:51.547Z,18.30
2022-08-01T15:57:19.915Z,18.17
2022-08-01T15:59:49.389Z,18.15
2022-08-01T16:02:17.677Z,17.60
2022-08-01T16:04:45.857Z,18.05
2022-08-01T16:07:13.992Z,17.98
2022-08-01T16:09:42.251Z,18.12
2022-08-01T16:12:10.940Z,18.45
2022-08-01T16:14:39.076Z,18.01
2022-08-01T16:17:08.611Z,17.94
2022-08-01T16:19:36.761Z,17.40
2022-08-01T16:22:05.233Z,17.41
2022-08-01T16:24:33.669Z,18.49
2022-08-01T16:27:01.785Z,18.26
2022-08-01T16:29:31.938Z,18.44
2022-08-01T16:32:06.712Z,18.89
2022-08-01T16:34:52.970Z,18.85
2022-08-01T16:37:23.819Z,18.65
2022-08-01T16:39:51.933Z,18.27
2022-08-01T16:42:27.635Z,18.73
2022-08-01T16:44:56.019Z,18.18
2022-08-01T16:47:24.234Z,17.97
2022-08-01T16:49:53.750Z,18.21
2022-08-01T16:52:28.566Z,17.98
2022-08-01T16:54:58.038Z,17.91
2022-08-01T16:57:26.193Z,18.08
2022-08-01T16:59:54.366Z,17.86
2022-08-01T17:02:25.087Z,17.85
2022-08-01T17:04:56.103Z,18.16
2022-08-01T17:07:24.503Z,18.31
2022-08-01T17:09:52.745Z,18.59
2022-08-01T17:12:22.241Z,18.36
2022-08-01T17:14:51.350Z,18.30
2022-08-01T17:17:19.498Z,17.92
2022-08-01T17:19:54.512Z,18.21
2022-08-01T17:22:27.756Z,18.30
2022-08-01T17:24:58.355Z,18.71
2022-08-01T17:27:26.545Z,18.55
2022-08-01T17:29:57.521Z,18.26
2022-08-01T17:32:28.249Z,18.65
2022-08-01T17:34:56.418Z,18.68
2022-08-01T17:37:27.244Z,18.80
2022-08-01T17:39:55.434Z,18.55
2022-08-01T17:42:25.621Z,18.05
2022-08-01T17:44:57.066Z,18.62
2022-08-01T17:47:49.355Z,19.17
2022-08-01T17:50:15.323Z,18.66
2022-08-01T17:52:46.124Z,19.29
2022-08-01T17:55:55.848Z,18.89
2022-08-01T17:58:05.162Z,19.15
2022-08-01T18:00:34.258Z,19.58
2022-08-01T18:03:02.596Z,19.82
2022-08-01T18:05:59.317Z,19.45
2022-08-01T18:08:31.708Z,19.62
2022-08-01T18:11:00.277Z,19.99
2022-08-01T18:13:29.265Z,20.01
2022-08-01T18:15:58.099Z,19.95
2022-08-01T18:18:33.506Z,20.73
2022-08-01T18:21:02.660Z,20.74
2022-08-01T18:23:33.708Z,21.31
2022-08-01T18:26:07.409Z,21.24
2022-08-01T18:28:41.718Z,21.53
2022-08-01T18:31:16.868Z,22.05
2022-08-01T18:33:47.420Z,22.66
2022-08-01T18:36:32.097Z,23.35
2022-08-01T18:39:10.151Z,23.04
2022-08-01T18:41:40.966Z,24.09
2022-08-01T18:44:12.454Z,24.49
2022-08-01T18:46:41.414Z,25.67
2022-08-01T18:49:12.267Z,26.73
2022-08-01T18:51:44.825Z,28.38
2022-08-01T18:54:16.015Z,30.79
2022-08-01T18:56:45.144Z,32.05
2022-08-01T18:59:15.832Z,33.41
2022-08-01T19:01:44.378Z,35.17
2022-08-01T19:04:17.385Z,35.98
2022-08-01T19:06:48.641Z,36.70
2022-08-01T19:09:20.804Z,38.33
2022-08-01T19:11:49.244Z,39.09
2022-08-01T19:14:17.586Z,39.82
2022-08-01T19:16:45.813Z,40.82
2022-08-01T19:19:27.667Z,41.59
2022-08-01T19:21:56.570Z,42.49
2022-08-01T19:24:26.107Z,42.94
2022-08-01T19:26:56.637Z,43.69
2022-08-01T19:29:36.017Z,44.10
2022-08-01T19:32:06.675Z,44.98
2022-08-01T19:34:37.956Z,45.81
2022-08-01T19:37:06.965Z,46.32
2022-08-01T19:39:36.704Z,46.98
2022-08-01T19:42:05.615Z,47.55
2022-08-01T19:44:36.039Z,48.14
2022-08-01T19:47:06.333Z,49.19
2022-08-01T19:49:34.922Z,49.75
2022-08-01T19:52:05.147Z,50.48
2022-08-01T19:54:38.085Z,51.21
2022-08-01T19:57:09.003Z,52.52
2022-08-01T19:59:39.879Z,52.73
2022-08-01T20:02:09.096Z,53.51
2022-08-01T20:04:37.413Z,53.82
2022-08-01T20:07:09.289Z,54.30
2022-08-01T20:09:41.320Z,54.89
2022-08-01T20:12:10.472Z,55.78
2022-08-01T20:14:38.643Z,56.27
2022-08-01T20:17:09.299Z,56.54
2022-08-01T20:19:37.461Z,57.14
2022-08-01T20:22:07.876Z,57.87
2022-08-01T20:24:45.958Z,58.63
2022-08-01T20:27:16.407Z,59.38
2022-08-01T20:29:46.447Z,59.44
2022-08-01T20:32:15.644Z,59.73
2022-08-01T20:34:46.346Z,59.81
2022-08-01T20:37:14.908Z,60.00
2022-08-01T20:39:45.307Z,60.49
2022-08-01T20:42:14.830Z,60.95
2022-08-01T20:44:46.437Z,61.39
2022-08-01T20:47:15.624Z,61.55
2022-08-01T20:49:46.822Z,61.94
2022-08-01T20:52:19.350Z,62.16
2022-08-01T20:54:48.942Z,62.73
2022-08-01T20:57:25.422Z,63.38
2022-08-01T21:00:01.905Z,63.60
2022-08-01T21:02:42.591Z,63.98
2022-08-01T21:05:14.444Z,64.73
2022-08-01T21:07:51.083Z,64.65
2022-08-01T21:10:26.013Z,65.18
2022-08-01T21:13:03.478Z,65.85
2022-08-01T21:15:34.773Z,66.20
2022-08-01T21:18:12.757Z,66.07
2022-08-01T21:20:49.519Z,66.59
2022-08-01T21:23:34.591Z,67.36
2022-08-01T21:26:07.999Z,67.96
2022-08-01T21:28:54.464Z,67.76
2022-08-01T21:31:37.658Z,67.79
2022-08-01T21:34:12.513Z,68.78
2022-08-01T21:36:45.450Z,69.14
2022-08-01T21:39:14.421Z,68.89
2022-08-01T21:41:56.311Z,68.68
2022-08-01T21:44:35.177Z,69.09
2022-08-01T21:47:04.867Z,69.51
2022-08-01T21:49:33.331Z,69.42
2022-08-01T21:52:09.241Z,69.84
2022-08-01T21:54:59.954Z,69.25
2022-08-01T21:57:45.668Z,69.49
2022-08-01T22:00:25.014Z,69.99
2022-08-01T22:03:15.160Z,69.60
2022-08-01T22:05:50.097Z,70.09
2022-08-01T22:08:30.095Z,69.87
2022-08-01T22:11:01.724Z,70.63
2022-08-01T22:13:31.321Z,70.79
2022-08-01T22:16:00.386Z,71.06
2022-08-01T22:18:29.018Z,71.30
2022-08-01T22:20:57.577Z,71.03
2022-08-01T22:23:25.884Z,71.76
2022-08-01T22:25:57.729Z,72.29
2022-08-01T22:28:26.192Z,72.26
2022-08-01T22:30:56.355Z,72.24
2022-08-01T22:33:25.343Z,73.08
2022-08-01T22:35:56.546Z,73.06
2022-08-01T22:38:26.145Z,73.48
2022-08-01T22:41:00.866Z,73.48
2022-08-01T22:43:37.801Z,73.41
2022-08-01T22:46:26.265Z,74.05
2022-08-01T22:49:03.264Z,74.29
2022-08-01T22:51:54.837Z,74.73
2022-08-01T22:54:31.490Z,75.07
2022-08-01T22:57:07.216Z,74.93
2022-08-01T22:59:49.941Z,74.58
2022-08-01T23:02:21.744Z,75.09
2022-08-01T23:04:51.302Z,74.49
2022-08-01T23:07:23.262Z,74.80
2022-08-01T23:09:54.844Z,75.30
2022-08-01T23:12:25.466Z,75.41
2022-08-01T23:14:56.498Z,75.97
2022-08-01T23:17:29.737Z,75.65
2022-08-01T23:20:00.939Z,75.94
2022-08-01T23:22:32.165Z,76.09
2022-08-01T23:25:05.447Z,75.49
2022-08-01T23:27:51.255Z,75.71
2022-08-01T23:30:28.464Z,75.14
2022-08-01T23:32:58.705Z,75.32
2022-08-01T23:35:28.017Z,74.72
2022-08-01T23:38:02.366Z,75.38
2022-08-01T23:40:32.258Z,75.17
2022-08-01T23:43:01.460Z,75.14
2022-08-01T23:45:36.013Z,74.51
2022-08-01T23:48:20.014Z,74.56
2022-08-01T23:50:48.156Z,74.02
2022-08-01T23:53:16.337Z,74.13
2022-08-01T23:55:44.640Z,73.80
2022-08-01T23:58:12.946Z,74.48
